<?xml version="1.0" encoding="UTF-8" standalone="no" ?>
<gpx xmlns="http://www.topografix.com/GPX/1/1" xmlns:xsi="http://www.w3.org/2001/XMLSchema-instance" xsi:schemaLocation="http://www.topografix.com/GPX/1/1 http://www.topografix.com/GPX/1/1/gpx.xsd" version="1.1" creator="VisuGPX - https://www.visugpx.com">
  <metadata>
    <name>Promenade des Hauts Glaciers</name>
    <desc><![CDATA[prépa séjour]]></desc>
  </metadata>
  <wpt lat="48.21204" lon="3.25738">
    <ele>78</ele>
    <name><![CDATA[Mairie sur la Rue de la Place]]></name>
  </wpt>
  <wpt lat="48.21471" lon="3.2501">
    <ele>134</ele>
    <name><![CDATA[Ligne électrique]]></name>
  </wpt>
  <wpt lat="48.20637" lon="3.23133">
    <ele>166</ele>
    <name><![CDATA[Ferme du Glacier]]></name>
  </wpt>
  <wpt lat="48.20333" lon="3.22679">
    <ele>151</ele>
    <name><![CDATA[Chemin à droite en fin de lisière]]></name>
  </wpt>
  <wpt lat="48.20322" lon="3.21886">
    <ele>164</ele>
    <name><![CDATA[Bois des Brûlis]]></name>
  </wpt>
  <wpt lat="48.20202" lon="3.21468">
    <ele>175</ele>
    <name><![CDATA[Bois des Brûlis]]></name>
  </wpt>
  <wpt lat="48.19883" lon="3.22614">
    <ele>161</ele>
    <name><![CDATA[Vers le Hameau des Caves]]></name>
  </wpt>
  <wpt lat="48.19777" lon="3.22604">
    <ele>154</ele>
    <name><![CDATA[Intersection]]></name>
  </wpt>
  <wpt lat="48.19932" lon="3.23225">
    <ele>166</ele>
    <name><![CDATA[Site d'aéromodélisme]]></name>
  </wpt>
  <wpt lat="48.20801" lon="3.25027">
    <ele>131</ele>
    <name><![CDATA[Retour au village]]></name>
  </wpt>
  <wpt lat="48.21142" lon="3.25467">
    <ele>84</ele>
    <name><![CDATA[Rue Chaude à droite]]></name>
  </wpt>
  <wpt lat="48.21204" lon="3.25739">
    <ele>78</ele>
    <name><![CDATA[Mairie sur la Rue de la Place]]></name>
  </wpt>
  <trk>
    <name><![CDATA[Promenade des Hauts Glaciers]]></name>
    <trkseg>
      <trkpt lat="48.21204" lon="3.25738">
        <ele>78</ele>
        <time>2019-12-21T16:33:08+01:00</time>
      </trkpt>
      <trkpt lat="48.21223" lon="3.25727">
        <ele>80</ele>
        <time>2019-12-21T16:33:13+01:00</time>
      </trkpt>
      <trkpt lat="48.21233" lon="3.2573">
        <ele>80</ele>
        <time>2019-12-21T16:33:18+01:00</time>
      </trkpt>
      <trkpt lat="48.21241" lon="3.25736">
        <ele>81</ele>
        <time>2019-12-21T16:33:23+01:00</time>
      </trkpt>
      <trkpt lat="48.21238" lon="3.25718">
        <ele>81</ele>
        <time>2019-12-21T16:33:28+01:00</time>
      </trkpt>
      <trkpt lat="48.21236" lon="3.25695">
        <ele>82</ele>
        <time>2019-12-21T16:33:33+01:00</time>
      </trkpt>
      <trkpt lat="48.21235" lon="3.25668">
        <ele>83</ele>
        <time>2019-12-21T16:33:38+01:00</time>
      </trkpt>
      <trkpt lat="48.21307" lon="3.25644">
        <ele>89</ele>
        <time>2019-12-21T16:33:43+01:00</time>
      </trkpt>
      <trkpt lat="48.21332" lon="3.25638">
        <ele>91</ele>
        <time>2019-12-21T16:33:48+01:00</time>
      </trkpt>
      <trkpt lat="48.21344" lon="3.25634">
        <ele>92</ele>
        <time>2019-12-21T16:33:53+01:00</time>
      </trkpt>
      <trkpt lat="48.21357" lon="3.25627">
        <ele>92</ele>
        <time>2019-12-21T16:33:58+01:00</time>
      </trkpt>
      <trkpt lat="48.21372" lon="3.25623">
        <ele>93</ele>
        <time>2019-12-21T16:34:03+01:00</time>
      </trkpt>
      <trkpt lat="48.21372" lon="3.25591">
        <ele>95</ele>
        <time>2019-12-21T16:34:08+01:00</time>
      </trkpt>
      <trkpt lat="48.21377" lon="3.25548">
        <ele>99</ele>
        <time>2019-12-21T16:34:13+01:00</time>
      </trkpt>
      <trkpt lat="48.21406" lon="3.25435">
        <ele>108</ele>
        <time>2019-12-21T16:34:18+01:00</time>
      </trkpt>
      <trkpt lat="48.21416" lon="3.25362">
        <ele>114</ele>
        <time>2019-12-21T16:34:23+01:00</time>
      </trkpt>
      <trkpt lat="48.21425" lon="3.25293">
        <ele>120</ele>
        <time>2019-12-21T16:34:28+01:00</time>
      </trkpt>
      <trkpt lat="48.21428" lon="3.25242">
        <ele>123</ele>
        <time>2019-12-21T16:34:33+01:00</time>
      </trkpt>
      <trkpt lat="48.2143" lon="3.25204">
        <ele>126</ele>
        <time>2019-12-21T16:34:38+01:00</time>
      </trkpt>
      <trkpt lat="48.21432" lon="3.25186">
        <ele>128</ele>
        <time>2019-12-21T16:34:43+01:00</time>
      </trkpt>
      <trkpt lat="48.2144" lon="3.25146">
        <ele>130</ele>
        <time>2019-12-21T16:34:48+01:00</time>
      </trkpt>
      <trkpt lat="48.21448" lon="3.25106">
        <ele>132</ele>
        <time>2019-12-21T16:34:53+01:00</time>
      </trkpt>
      <trkpt lat="48.21459" lon="3.25066">
        <ele>133</ele>
        <time>2019-12-21T16:34:58+01:00</time>
      </trkpt>
      <trkpt lat="48.21466" lon="3.25038">
        <ele>134</ele>
        <time>2019-12-21T16:35:03+01:00</time>
      </trkpt>
      <trkpt lat="48.21471" lon="3.2501">
        <ele>134</ele>
        <time>2019-12-21T16:35:08+01:00</time>
      </trkpt>
      <trkpt lat="48.21467" lon="3.24978">
        <ele>135</ele>
        <time>2019-12-21T16:35:13+01:00</time>
      </trkpt>
      <trkpt lat="48.21431" lon="3.24866">
        <ele>141</ele>
        <time>2019-12-21T16:35:18+01:00</time>
      </trkpt>
      <trkpt lat="48.21419" lon="3.24822">
        <ele>143</ele>
        <time>2019-12-21T16:35:23+01:00</time>
      </trkpt>
      <trkpt lat="48.21408" lon="3.24777">
        <ele>144</ele>
        <time>2019-12-21T16:35:28+01:00</time>
      </trkpt>
      <trkpt lat="48.21371" lon="3.24667">
        <ele>148</ele>
        <time>2019-12-21T16:35:33+01:00</time>
      </trkpt>
      <trkpt lat="48.2136" lon="3.24641">
        <ele>149</ele>
        <time>2019-12-21T16:35:38+01:00</time>
      </trkpt>
      <trkpt lat="48.21348" lon="3.24612">
        <ele>149</ele>
        <time>2019-12-21T16:35:43+01:00</time>
      </trkpt>
      <trkpt lat="48.21342" lon="3.24583">
        <ele>150</ele>
        <time>2019-12-21T16:35:48+01:00</time>
      </trkpt>
      <trkpt lat="48.21338" lon="3.24552">
        <ele>151</ele>
        <time>2019-12-21T16:35:53+01:00</time>
      </trkpt>
      <trkpt lat="48.21337" lon="3.24498">
        <ele>152</ele>
        <time>2019-12-21T16:35:58+01:00</time>
      </trkpt>
      <trkpt lat="48.21336" lon="3.24474">
        <ele>153</ele>
        <time>2019-12-21T16:36:03+01:00</time>
      </trkpt>
      <trkpt lat="48.21334" lon="3.2445">
        <ele>154</ele>
        <time>2019-12-21T16:36:08+01:00</time>
      </trkpt>
      <trkpt lat="48.21328" lon="3.2441">
        <ele>155</ele>
        <time>2019-12-21T16:36:13+01:00</time>
      </trkpt>
      <trkpt lat="48.21321" lon="3.2438">
        <ele>155</ele>
        <time>2019-12-21T16:36:18+01:00</time>
      </trkpt>
      <trkpt lat="48.21316" lon="3.24351">
        <ele>155</ele>
        <time>2019-12-21T16:36:23+01:00</time>
      </trkpt>
      <trkpt lat="48.21309" lon="3.24309">
        <ele>155</ele>
        <time>2019-12-21T16:36:28+01:00</time>
      </trkpt>
      <trkpt lat="48.213" lon="3.24262">
        <ele>155</ele>
        <time>2019-12-21T16:36:33+01:00</time>
      </trkpt>
      <trkpt lat="48.21282" lon="3.24156">
        <ele>158</ele>
        <time>2019-12-21T16:36:38+01:00</time>
      </trkpt>
      <trkpt lat="48.21265" lon="3.24078">
        <ele>160</ele>
        <time>2019-12-21T16:36:43+01:00</time>
      </trkpt>
      <trkpt lat="48.21244" lon="3.24004">
        <ele>163</ele>
        <time>2019-12-21T16:36:48+01:00</time>
      </trkpt>
      <trkpt lat="48.21232" lon="3.23969">
        <ele>163</ele>
        <time>2019-12-21T16:36:53+01:00</time>
      </trkpt>
      <trkpt lat="48.2122" lon="3.2393">
        <ele>164</ele>
        <time>2019-12-21T16:36:58+01:00</time>
      </trkpt>
      <trkpt lat="48.21214" lon="3.23899">
        <ele>164</ele>
        <time>2019-12-21T16:37:03+01:00</time>
      </trkpt>
      <trkpt lat="48.21209" lon="3.23865">
        <ele>164</ele>
        <time>2019-12-21T16:37:08+01:00</time>
      </trkpt>
      <trkpt lat="48.21187" lon="3.23844">
        <ele>164</ele>
        <time>2019-12-21T16:37:13+01:00</time>
      </trkpt>
      <trkpt lat="48.21165" lon="3.23819">
        <ele>165</ele>
        <time>2019-12-21T16:37:18+01:00</time>
      </trkpt>
      <trkpt lat="48.21151" lon="3.23792">
        <ele>165</ele>
        <time>2019-12-21T16:37:23+01:00</time>
      </trkpt>
      <trkpt lat="48.21138" lon="3.23763">
        <ele>165</ele>
        <time>2019-12-21T16:37:28+01:00</time>
      </trkpt>
      <trkpt lat="48.21113" lon="3.23708">
        <ele>165</ele>
        <time>2019-12-21T16:37:33+01:00</time>
      </trkpt>
      <trkpt lat="48.21093" lon="3.23669">
        <ele>166</ele>
        <time>2019-12-21T16:37:38+01:00</time>
      </trkpt>
      <trkpt lat="48.21073" lon="3.23628">
        <ele>166</ele>
        <time>2019-12-21T16:37:43+01:00</time>
      </trkpt>
      <trkpt lat="48.21055" lon="3.23596">
        <ele>166</ele>
        <time>2019-12-21T16:37:48+01:00</time>
      </trkpt>
      <trkpt lat="48.21037" lon="3.23558">
        <ele>166</ele>
        <time>2019-12-21T16:37:53+01:00</time>
      </trkpt>
      <trkpt lat="48.21016" lon="3.23516">
        <ele>166</ele>
        <time>2019-12-21T16:37:58+01:00</time>
      </trkpt>
      <trkpt lat="48.20995" lon="3.2347">
        <ele>168</ele>
        <time>2019-12-21T16:38:03+01:00</time>
      </trkpt>
      <trkpt lat="48.20973" lon="3.23426">
        <ele>168</ele>
        <time>2019-12-21T16:38:08+01:00</time>
      </trkpt>
      <trkpt lat="48.20958" lon="3.23383">
        <ele>168</ele>
        <time>2019-12-21T16:38:13+01:00</time>
      </trkpt>
      <trkpt lat="48.20946" lon="3.23349">
        <ele>169</ele>
        <time>2019-12-21T16:38:18+01:00</time>
      </trkpt>
      <trkpt lat="48.20932" lon="3.23289">
        <ele>170</ele>
        <time>2019-12-21T16:38:23+01:00</time>
      </trkpt>
      <trkpt lat="48.20924" lon="3.23223">
        <ele>170</ele>
        <time>2019-12-21T16:38:28+01:00</time>
      </trkpt>
      <trkpt lat="48.20926" lon="3.23197">
        <ele>170</ele>
        <time>2019-12-21T16:38:33+01:00</time>
      </trkpt>
      <trkpt lat="48.20932" lon="3.2317">
        <ele>170</ele>
        <time>2019-12-21T16:38:38+01:00</time>
      </trkpt>
      <trkpt lat="48.2085" lon="3.2316">
        <ele>169</ele>
        <time>2019-12-21T16:38:43+01:00</time>
      </trkpt>
      <trkpt lat="48.20776" lon="3.2315">
        <ele>169</ele>
        <time>2019-12-21T16:38:48+01:00</time>
      </trkpt>
      <trkpt lat="48.20707" lon="3.23141">
        <ele>168</ele>
        <time>2019-12-21T16:38:53+01:00</time>
      </trkpt>
      <trkpt lat="48.20675" lon="3.2314">
        <ele>167</ele>
        <time>2019-12-21T16:38:58+01:00</time>
      </trkpt>
      <trkpt lat="48.20648" lon="3.23136">
        <ele>166</ele>
        <time>2019-12-21T16:39:03+01:00</time>
      </trkpt>
      <trkpt lat="48.20637" lon="3.23133">
        <ele>166</ele>
        <time>2019-12-21T16:39:08+01:00</time>
      </trkpt>
      <trkpt lat="48.20618" lon="3.23144">
        <ele>165</ele>
        <time>2019-12-21T16:39:13+01:00</time>
      </trkpt>
      <trkpt lat="48.20597" lon="3.23152">
        <ele>164</ele>
        <time>2019-12-21T16:39:18+01:00</time>
      </trkpt>
      <trkpt lat="48.20579" lon="3.23158">
        <ele>163</ele>
        <time>2019-12-21T16:39:23+01:00</time>
      </trkpt>
      <trkpt lat="48.20568" lon="3.23157">
        <ele>163</ele>
        <time>2019-12-21T16:39:28+01:00</time>
      </trkpt>
      <trkpt lat="48.20561" lon="3.23151">
        <ele>163</ele>
        <time>2019-12-21T16:39:33+01:00</time>
      </trkpt>
      <trkpt lat="48.20549" lon="3.23078">
        <ele>165</ele>
        <time>2019-12-21T16:39:38+01:00</time>
      </trkpt>
      <trkpt lat="48.20538" lon="3.23011">
        <ele>166</ele>
        <time>2019-12-21T16:39:43+01:00</time>
      </trkpt>
      <trkpt lat="48.20524" lon="3.22913">
        <ele>167</ele>
        <time>2019-12-21T16:39:48+01:00</time>
      </trkpt>
      <trkpt lat="48.20512" lon="3.22826">
        <ele>166</ele>
        <time>2019-12-21T16:39:53+01:00</time>
      </trkpt>
      <trkpt lat="48.20497" lon="3.22735">
        <ele>164</ele>
        <time>2019-12-21T16:39:58+01:00</time>
      </trkpt>
      <trkpt lat="48.20493" lon="3.22714">
        <ele>163</ele>
        <time>2019-12-21T16:40:03+01:00</time>
      </trkpt>
      <trkpt lat="48.20489" lon="3.22704">
        <ele>162</ele>
        <time>2019-12-21T16:40:08+01:00</time>
      </trkpt>
      <trkpt lat="48.20483" lon="3.22698">
        <ele>161</ele>
        <time>2019-12-21T16:40:13+01:00</time>
      </trkpt>
      <trkpt lat="48.20467" lon="3.22694">
        <ele>160</ele>
        <time>2019-12-21T16:40:18+01:00</time>
      </trkpt>
      <trkpt lat="48.2044" lon="3.22691">
        <ele>159</ele>
        <time>2019-12-21T16:40:23+01:00</time>
      </trkpt>
      <trkpt lat="48.20411" lon="3.22686">
        <ele>158</ele>
        <time>2019-12-21T16:40:28+01:00</time>
      </trkpt>
      <trkpt lat="48.20381" lon="3.22682">
        <ele>155</ele>
        <time>2019-12-21T16:40:33+01:00</time>
      </trkpt>
      <trkpt lat="48.20347" lon="3.22676">
        <ele>152</ele>
        <time>2019-12-21T16:40:38+01:00</time>
      </trkpt>
      <trkpt lat="48.20333" lon="3.22679">
        <ele>151</ele>
        <time>2019-12-21T16:40:43+01:00</time>
      </trkpt>
      <trkpt lat="48.2033" lon="3.22666">
        <ele>150</ele>
        <time>2019-12-21T16:40:48+01:00</time>
      </trkpt>
      <trkpt lat="48.20329" lon="3.22628">
        <ele>150</ele>
        <time>2019-12-21T16:40:53+01:00</time>
      </trkpt>
      <trkpt lat="48.20329" lon="3.2246">
        <ele>151</ele>
        <time>2019-12-21T16:40:58+01:00</time>
      </trkpt>
      <trkpt lat="48.20326" lon="3.22381">
        <ele>153</ele>
        <time>2019-12-21T16:41:03+01:00</time>
      </trkpt>
      <trkpt lat="48.20326" lon="3.22351">
        <ele>154</ele>
        <time>2019-12-21T16:41:08+01:00</time>
      </trkpt>
      <trkpt lat="48.20325" lon="3.22159">
        <ele>158</ele>
        <time>2019-12-21T16:41:13+01:00</time>
      </trkpt>
      <trkpt lat="48.20324" lon="3.22024">
        <ele>160</ele>
        <time>2019-12-21T16:41:18+01:00</time>
      </trkpt>
      <trkpt lat="48.20322" lon="3.21886">
        <ele>164</ele>
        <time>2019-12-21T16:41:23+01:00</time>
      </trkpt>
      <trkpt lat="48.2033" lon="3.21825">
        <ele>166</ele>
        <time>2019-12-21T16:41:28+01:00</time>
      </trkpt>
      <trkpt lat="48.20324" lon="3.21785">
        <ele>168</ele>
        <time>2019-12-21T16:41:33+01:00</time>
      </trkpt>
      <trkpt lat="48.20318" lon="3.21747">
        <ele>170</ele>
        <time>2019-12-21T16:41:38+01:00</time>
      </trkpt>
      <trkpt lat="48.20307" lon="3.21708">
        <ele>172</ele>
        <time>2019-12-21T16:41:43+01:00</time>
      </trkpt>
      <trkpt lat="48.20292" lon="3.21652">
        <ele>173</ele>
        <time>2019-12-21T16:41:48+01:00</time>
      </trkpt>
      <trkpt lat="48.20278" lon="3.21612">
        <ele>173</ele>
        <time>2019-12-21T16:41:53+01:00</time>
      </trkpt>
      <trkpt lat="48.20262" lon="3.21569">
        <ele>173</ele>
        <time>2019-12-21T16:41:58+01:00</time>
      </trkpt>
      <trkpt lat="48.20241" lon="3.21517">
        <ele>174</ele>
        <time>2019-12-21T16:42:03+01:00</time>
      </trkpt>
      <trkpt lat="48.20202" lon="3.21468">
        <ele>175</ele>
        <time>2019-12-21T16:42:08+01:00</time>
      </trkpt>
      <trkpt lat="48.20178" lon="3.21566">
        <ele>178</ele>
        <time>2019-12-21T16:42:13+01:00</time>
      </trkpt>
      <trkpt lat="48.20164" lon="3.21653">
        <ele>181</ele>
        <time>2019-12-21T16:42:18+01:00</time>
      </trkpt>
      <trkpt lat="48.2016" lon="3.21677">
        <ele>181</ele>
        <time>2019-12-21T16:42:23+01:00</time>
      </trkpt>
      <trkpt lat="48.20153" lon="3.21742">
        <ele>179</ele>
        <time>2019-12-21T16:42:28+01:00</time>
      </trkpt>
      <trkpt lat="48.20148" lon="3.21778">
        <ele>179</ele>
        <time>2019-12-21T16:42:33+01:00</time>
      </trkpt>
      <trkpt lat="48.20142" lon="3.21811">
        <ele>178</ele>
        <time>2019-12-21T16:42:38+01:00</time>
      </trkpt>
      <trkpt lat="48.20142" lon="3.21839">
        <ele>178</ele>
        <time>2019-12-21T16:42:43+01:00</time>
      </trkpt>
      <trkpt lat="48.20124" lon="3.21891">
        <ele>173</ele>
        <time>2019-12-21T16:42:48+01:00</time>
      </trkpt>
      <trkpt lat="48.2012" lon="3.21917">
        <ele>171</ele>
        <time>2019-12-21T16:42:53+01:00</time>
      </trkpt>
      <trkpt lat="48.20112" lon="3.21948">
        <ele>170</ele>
        <time>2019-12-21T16:42:58+01:00</time>
      </trkpt>
      <trkpt lat="48.201" lon="3.21983">
        <ele>169</ele>
        <time>2019-12-21T16:43:03+01:00</time>
      </trkpt>
      <trkpt lat="48.2009" lon="3.22017">
        <ele>169</ele>
        <time>2019-12-21T16:43:08+01:00</time>
      </trkpt>
      <trkpt lat="48.2008" lon="3.2206">
        <ele>170</ele>
        <time>2019-12-21T16:43:13+01:00</time>
      </trkpt>
      <trkpt lat="48.20069" lon="3.22108">
        <ele>169</ele>
        <time>2019-12-21T16:43:18+01:00</time>
      </trkpt>
      <trkpt lat="48.20058" lon="3.2216">
        <ele>167</ele>
        <time>2019-12-21T16:43:23+01:00</time>
      </trkpt>
      <trkpt lat="48.2005" lon="3.22192">
        <ele>165</ele>
        <time>2019-12-21T16:43:28+01:00</time>
      </trkpt>
      <trkpt lat="48.20042" lon="3.22226">
        <ele>164</ele>
        <time>2019-12-21T16:43:33+01:00</time>
      </trkpt>
      <trkpt lat="48.2003" lon="3.22263">
        <ele>163</ele>
        <time>2019-12-21T16:43:38+01:00</time>
      </trkpt>
      <trkpt lat="48.20016" lon="3.22303">
        <ele>161</ele>
        <time>2019-12-21T16:43:43+01:00</time>
      </trkpt>
      <trkpt lat="48.19998" lon="3.22347">
        <ele>161</ele>
        <time>2019-12-21T16:43:48+01:00</time>
      </trkpt>
      <trkpt lat="48.19945" lon="3.22468">
        <ele>159</ele>
        <time>2019-12-21T16:43:53+01:00</time>
      </trkpt>
      <trkpt lat="48.19883" lon="3.22614">
        <ele>161</ele>
        <time>2019-12-21T16:43:58+01:00</time>
      </trkpt>
      <trkpt lat="48.19857" lon="3.22609">
        <ele>161</ele>
        <time>2019-12-21T16:44:03+01:00</time>
      </trkpt>
      <trkpt lat="48.19777" lon="3.22604">
        <ele>154</ele>
        <time>2019-12-21T16:44:08+01:00</time>
      </trkpt>
      <trkpt lat="48.19792" lon="3.22654">
        <ele>157</ele>
        <time>2019-12-21T16:44:13+01:00</time>
      </trkpt>
      <trkpt lat="48.19801" lon="3.22714">
        <ele>160</ele>
        <time>2019-12-21T16:44:18+01:00</time>
      </trkpt>
      <trkpt lat="48.19814" lon="3.22772">
        <ele>163</ele>
        <time>2019-12-21T16:44:23+01:00</time>
      </trkpt>
      <trkpt lat="48.19822" lon="3.22799">
        <ele>165</ele>
        <time>2019-12-21T16:44:28+01:00</time>
      </trkpt>
      <trkpt lat="48.19834" lon="3.22833">
        <ele>167</ele>
        <time>2019-12-21T16:44:33+01:00</time>
      </trkpt>
      <trkpt lat="48.19848" lon="3.22872">
        <ele>167</ele>
        <time>2019-12-21T16:44:38+01:00</time>
      </trkpt>
      <trkpt lat="48.19858" lon="3.22906">
        <ele>166</ele>
        <time>2019-12-21T16:44:43+01:00</time>
      </trkpt>
      <trkpt lat="48.19867" lon="3.22972">
        <ele>165</ele>
        <time>2019-12-21T16:44:48+01:00</time>
      </trkpt>
      <trkpt lat="48.19875" lon="3.23026">
        <ele>165</ele>
        <time>2019-12-21T16:44:53+01:00</time>
      </trkpt>
      <trkpt lat="48.19881" lon="3.23062">
        <ele>164</ele>
        <time>2019-12-21T16:44:58+01:00</time>
      </trkpt>
      <trkpt lat="48.19887" lon="3.23096">
        <ele>164</ele>
        <time>2019-12-21T16:45:03+01:00</time>
      </trkpt>
      <trkpt lat="48.19893" lon="3.2313">
        <ele>164</ele>
        <time>2019-12-21T16:45:08+01:00</time>
      </trkpt>
      <trkpt lat="48.19903" lon="3.23159">
        <ele>165</ele>
        <time>2019-12-21T16:45:13+01:00</time>
      </trkpt>
      <trkpt lat="48.19925" lon="3.23197">
        <ele>166</ele>
        <time>2019-12-21T16:45:18+01:00</time>
      </trkpt>
      <trkpt lat="48.19932" lon="3.23225">
        <ele>166</ele>
        <time>2019-12-21T16:45:23+01:00</time>
      </trkpt>
      <trkpt lat="48.19935" lon="3.2325">
        <ele>167</ele>
        <time>2019-12-21T16:45:28+01:00</time>
      </trkpt>
      <trkpt lat="48.1994" lon="3.23318">
        <ele>164</ele>
        <time>2019-12-21T16:45:33+01:00</time>
      </trkpt>
      <trkpt lat="48.19953" lon="3.23361">
        <ele>163</ele>
        <time>2019-12-21T16:45:38+01:00</time>
      </trkpt>
      <trkpt lat="48.19962" lon="3.23396">
        <ele>163</ele>
        <time>2019-12-21T16:45:43+01:00</time>
      </trkpt>
      <trkpt lat="48.19968" lon="3.2343">
        <ele>163</ele>
        <time>2019-12-21T16:45:48+01:00</time>
      </trkpt>
      <trkpt lat="48.19979" lon="3.23461">
        <ele>164</ele>
        <time>2019-12-21T16:45:53+01:00</time>
      </trkpt>
      <trkpt lat="48.19992" lon="3.23491">
        <ele>165</ele>
        <time>2019-12-21T16:45:58+01:00</time>
      </trkpt>
      <trkpt lat="48.20014" lon="3.2356">
        <ele>165</ele>
        <time>2019-12-21T16:46:03+01:00</time>
      </trkpt>
      <trkpt lat="48.20025" lon="3.23596">
        <ele>164</ele>
        <time>2019-12-21T16:46:08+01:00</time>
      </trkpt>
      <trkpt lat="48.20033" lon="3.2363">
        <ele>163</ele>
        <time>2019-12-21T16:46:13+01:00</time>
      </trkpt>
      <trkpt lat="48.20039" lon="3.23652">
        <ele>163</ele>
        <time>2019-12-21T16:46:18+01:00</time>
      </trkpt>
      <trkpt lat="48.20043" lon="3.23674">
        <ele>163</ele>
        <time>2019-12-21T16:46:23+01:00</time>
      </trkpt>
      <trkpt lat="48.20049" lon="3.23698">
        <ele>163</ele>
        <time>2019-12-21T16:46:28+01:00</time>
      </trkpt>
      <trkpt lat="48.20055" lon="3.23716">
        <ele>164</ele>
        <time>2019-12-21T16:46:33+01:00</time>
      </trkpt>
      <trkpt lat="48.20076" lon="3.23775">
        <ele>166</ele>
        <time>2019-12-21T16:46:38+01:00</time>
      </trkpt>
      <trkpt lat="48.20107" lon="3.23861">
        <ele>167</ele>
        <time>2019-12-21T16:46:43+01:00</time>
      </trkpt>
      <trkpt lat="48.20117" lon="3.23895">
        <ele>167</ele>
        <time>2019-12-21T16:46:48+01:00</time>
      </trkpt>
      <trkpt lat="48.20126" lon="3.23926">
        <ele>166</ele>
        <time>2019-12-21T16:46:53+01:00</time>
      </trkpt>
      <trkpt lat="48.20146" lon="3.23984">
        <ele>164</ele>
        <time>2019-12-21T16:46:58+01:00</time>
      </trkpt>
      <trkpt lat="48.20177" lon="3.24062">
        <ele>163</ele>
        <time>2019-12-21T16:47:03+01:00</time>
      </trkpt>
      <trkpt lat="48.20188" lon="3.24092">
        <ele>163</ele>
        <time>2019-12-21T16:47:08+01:00</time>
      </trkpt>
      <trkpt lat="48.20197" lon="3.24121">
        <ele>163</ele>
        <time>2019-12-21T16:47:13+01:00</time>
      </trkpt>
      <trkpt lat="48.20218" lon="3.24182">
        <ele>163</ele>
        <time>2019-12-21T16:47:18+01:00</time>
      </trkpt>
      <trkpt lat="48.20245" lon="3.24248">
        <ele>165</ele>
        <time>2019-12-21T16:47:23+01:00</time>
      </trkpt>
      <trkpt lat="48.20281" lon="3.24326">
        <ele>166</ele>
        <time>2019-12-21T16:47:28+01:00</time>
      </trkpt>
      <trkpt lat="48.20322" lon="3.24414">
        <ele>165</ele>
        <time>2019-12-21T16:47:33+01:00</time>
      </trkpt>
      <trkpt lat="48.20345" lon="3.24457">
        <ele>164</ele>
        <time>2019-12-21T16:47:38+01:00</time>
      </trkpt>
      <trkpt lat="48.20368" lon="3.24496">
        <ele>163</ele>
        <time>2019-12-21T16:47:43+01:00</time>
      </trkpt>
      <trkpt lat="48.204" lon="3.24546">
        <ele>160</ele>
        <time>2019-12-21T16:47:48+01:00</time>
      </trkpt>
      <trkpt lat="48.20439" lon="3.24591">
        <ele>158</ele>
        <time>2019-12-21T16:47:53+01:00</time>
      </trkpt>
      <trkpt lat="48.20461" lon="3.24616">
        <ele>156</ele>
        <time>2019-12-21T16:47:58+01:00</time>
      </trkpt>
      <trkpt lat="48.20485" lon="3.24657">
        <ele>155</ele>
        <time>2019-12-21T16:48:03+01:00</time>
      </trkpt>
      <trkpt lat="48.20497" lon="3.24681">
        <ele>154</ele>
        <time>2019-12-21T16:48:08+01:00</time>
      </trkpt>
      <trkpt lat="48.20514" lon="3.24704">
        <ele>152</ele>
        <time>2019-12-21T16:48:13+01:00</time>
      </trkpt>
      <trkpt lat="48.20532" lon="3.24726">
        <ele>150</ele>
        <time>2019-12-21T16:48:18+01:00</time>
      </trkpt>
      <trkpt lat="48.20554" lon="3.24743">
        <ele>149</ele>
        <time>2019-12-21T16:48:23+01:00</time>
      </trkpt>
      <trkpt lat="48.20584" lon="3.24753">
        <ele>149</ele>
        <time>2019-12-21T16:48:28+01:00</time>
      </trkpt>
      <trkpt lat="48.206" lon="3.2476">
        <ele>146</ele>
        <time>2019-12-21T16:48:33+01:00</time>
      </trkpt>
      <trkpt lat="48.20611" lon="3.24768">
        <ele>144</ele>
        <time>2019-12-21T16:48:38+01:00</time>
      </trkpt>
      <trkpt lat="48.20629" lon="3.24793">
        <ele>142</ele>
        <time>2019-12-21T16:48:43+01:00</time>
      </trkpt>
      <trkpt lat="48.20656" lon="3.2485">
        <ele>141</ele>
        <time>2019-12-21T16:48:48+01:00</time>
      </trkpt>
      <trkpt lat="48.20703" lon="3.24915">
        <ele>136</ele>
        <time>2019-12-21T16:48:53+01:00</time>
      </trkpt>
      <trkpt lat="48.20741" lon="3.24958">
        <ele>134</ele>
        <time>2019-12-21T16:48:58+01:00</time>
      </trkpt>
      <trkpt lat="48.20775" lon="3.24994">
        <ele>133</ele>
        <time>2019-12-21T16:49:03+01:00</time>
      </trkpt>
      <trkpt lat="48.20801" lon="3.25027">
        <ele>131</ele>
        <time>2019-12-21T16:49:08+01:00</time>
      </trkpt>
      <trkpt lat="48.20827" lon="3.25062">
        <ele>130</ele>
        <time>2019-12-21T16:49:13+01:00</time>
      </trkpt>
      <trkpt lat="48.20862" lon="3.25097">
        <ele>125</ele>
        <time>2019-12-21T16:49:18+01:00</time>
      </trkpt>
      <trkpt lat="48.20885" lon="3.25127">
        <ele>121</ele>
        <time>2019-12-21T16:49:23+01:00</time>
      </trkpt>
      <trkpt lat="48.20905" lon="3.25153">
        <ele>119</ele>
        <time>2019-12-21T16:49:28+01:00</time>
      </trkpt>
      <trkpt lat="48.20925" lon="3.25177">
        <ele>117</ele>
        <time>2019-12-21T16:49:33+01:00</time>
      </trkpt>
      <trkpt lat="48.20939" lon="3.25202">
        <ele>114</ele>
        <time>2019-12-21T16:49:38+01:00</time>
      </trkpt>
      <trkpt lat="48.20951" lon="3.25216">
        <ele>112</ele>
        <time>2019-12-21T16:49:43+01:00</time>
      </trkpt>
      <trkpt lat="48.20975" lon="3.25225">
        <ele>110</ele>
        <time>2019-12-21T16:49:48+01:00</time>
      </trkpt>
      <trkpt lat="48.20986" lon="3.25233">
        <ele>109</ele>
        <time>2019-12-21T16:49:53+01:00</time>
      </trkpt>
      <trkpt lat="48.20995" lon="3.25244">
        <ele>108</ele>
        <time>2019-12-21T16:49:58+01:00</time>
      </trkpt>
      <trkpt lat="48.21006" lon="3.2526">
        <ele>107</ele>
        <time>2019-12-21T16:50:03+01:00</time>
      </trkpt>
      <trkpt lat="48.21022" lon="3.25296">
        <ele>103</ele>
        <time>2019-12-21T16:50:08+01:00</time>
      </trkpt>
      <trkpt lat="48.21033" lon="3.25324">
        <ele>100</ele>
        <time>2019-12-21T16:50:13+01:00</time>
      </trkpt>
      <trkpt lat="48.21049" lon="3.25344">
        <ele>98</ele>
        <time>2019-12-21T16:50:18+01:00</time>
      </trkpt>
      <trkpt lat="48.21071" lon="3.2537">
        <ele>94</ele>
        <time>2019-12-21T16:50:23+01:00</time>
      </trkpt>
      <trkpt lat="48.21089" lon="3.25399">
        <ele>91</ele>
        <time>2019-12-21T16:50:28+01:00</time>
      </trkpt>
      <trkpt lat="48.21103" lon="3.25418">
        <ele>88</ele>
        <time>2019-12-21T16:50:33+01:00</time>
      </trkpt>
      <trkpt lat="48.21117" lon="3.25444">
        <ele>86</ele>
        <time>2019-12-21T16:50:38+01:00</time>
      </trkpt>
      <trkpt lat="48.21142" lon="3.25467">
        <ele>84</ele>
        <time>2019-12-21T16:50:43+01:00</time>
      </trkpt>
      <trkpt lat="48.21125" lon="3.25512">
        <ele>82</ele>
        <time>2019-12-21T16:50:48+01:00</time>
      </trkpt>
      <trkpt lat="48.21114" lon="3.25557">
        <ele>79</ele>
        <time>2019-12-21T16:50:53+01:00</time>
      </trkpt>
      <trkpt lat="48.21104" lon="3.25622">
        <ele>77</ele>
        <time>2019-12-21T16:50:58+01:00</time>
      </trkpt>
      <trkpt lat="48.21095" lon="3.25681">
        <ele>78</ele>
        <time>2019-12-21T16:51:03+01:00</time>
      </trkpt>
      <trkpt lat="48.21091" lon="3.25687">
        <ele>78</ele>
        <time>2019-12-21T16:51:08+01:00</time>
      </trkpt>
      <trkpt lat="48.21086" lon="3.25693">
        <ele>78</ele>
        <time>2019-12-21T16:51:13+01:00</time>
      </trkpt>
      <trkpt lat="48.21099" lon="3.25734">
        <ele>80</ele>
        <time>2019-12-21T16:51:18+01:00</time>
      </trkpt>
      <trkpt lat="48.21109" lon="3.25777">
        <ele>81</ele>
        <time>2019-12-21T16:51:23+01:00</time>
      </trkpt>
      <trkpt lat="48.21154" lon="3.25761">
        <ele>76</ele>
        <time>2019-12-21T16:51:28+01:00</time>
      </trkpt>
      <trkpt lat="48.21169" lon="3.25752">
        <ele>75</ele>
        <time>2019-12-21T16:51:33+01:00</time>
      </trkpt>
      <trkpt lat="48.21189" lon="3.25745">
        <ele>77</ele>
        <time>2019-12-21T16:51:38+01:00</time>
      </trkpt>
      <trkpt lat="48.21204" lon="3.25739">
        <ele>78</ele>
        <time>2019-12-21T16:51:43+01:00</time>
      </trkpt>
    </trkseg>
  </trk>
</gpx>